WIDD/BTH METAR and TAF weather

Enter ICAO airport designator
Station Type Date Time Source
WIDD METAR 2019/12/07 05:00 UTC NOAA

WIDD 070500Z 03008KT 9999 SCT014 30/22 Q1013 NOSIG


Station Type Date Time Source
WIDD Decoded METAR 2019/12/07 05:00 UTC NOAA

Station name not available
Dec 07, 2019 - 12:00 AM EST / 2019.12.07 0500 UTC
Wind: from the NNE (030 degrees) at 9 MPH (8 KT):0
Visibility: greater than 7 mile(s):0
Sky conditions: partly cloudy
Temperature: 86 F (30 C)
Heat index: 91.8 F (33.2 C):1
Dew Point: 71 F (22 C)
Relative Humidity: 62%
Pressure (altimeter): 29.91 in. Hg (1013 hPa)
ob: WIDD 070500Z 03008KT 9999 SCT014 30/22 Q1013 NOSIG
cycle: 5

Station Type Date Time Source
WIDD TAF 2019/12/07 06:00 UTC NOAA

TAF WIDD 070500Z 0706/0806 03009KT 9999 SCT014=

Example: see airport list